Time;durP1;ratioP1;P1;durP2;ratioP2;P2;SDS_P1;SDS_P2;PMS_P1;PMS_P2;Temp;Humidity;BMP_temperature;BMP_pressure;BME280_temperature;BME280_humidity;BME280_pressure;Samples;Min_cycle;Max_cycle;Signal;HPM_P1;HPM_P2
2023/05/03 00:02:04;;;;;;;3.40;0.60;;;11.90;67.20;;;;;;5015614;28;20041;-77
2023/05/03 00:04:30;;;;;;;4.70;0.30;;;11.80;66.40;;;;;;4998318;28;20034;-77
2023/05/03 00:06:56;;;;;;;1.23;0.22;;;11.70;67.10;;;;;;4998512;28;20146;-77
2023/05/03 00:09:22;;;;;;;3.53;0.45;;;11.50;67.30;;;;;;5015600;28;20148;-77
2023/05/03 00:11:48;;;;;;;1.92;0.25;;;11.50;68.10;;;;;;4998490;28;20068;-77
2023/05/03 00:14:14;;;;;;;2.85;0.50;;;11.60;67.80;;;;;;5015142;28;20034;-77
2023/05/03 00:16:39;;;;;;;2.17;0.30;;;11.50;67.90;;;;;;4997562;28;20034;-77
2023/05/03 00:19:05;;;;;;;3.92;0.30;;;11.40;68.20;;;;;;5015038;28;20046;-77
2023/05/03 00:21:31;;;;;;;1.58;0.30;;;11.40;68.70;;;;;;5015306;28;20379;-77
2023/05/03 00:23:57;;;;;;;1.85;0.30;;;11.50;69.30;;;;;;4997710;28;20048;-77
2023/05/03 00:26:23;;;;;;;7.18;0.50;;;11.60;68.40;;;;;;5015072;28;20038;-78
2023/05/03 00:28:49;;;;;;;0.80;0.20;;;11.50;68.40;;;;;;5016190;28;20487;-78
2023/05/03 00:31:14;;;;;;;4.63;0.50;;;11.60;69.40;;;;;;5015706;28;20470;-77
2023/05/03 00:33:40;;;;;;;2.83;0.40;;;11.80;68.90;;;;;;4998181;28;20121;-77
2023/05/03 00:36:11;;;;;;;2.08;0.20;;;11.70;68.10;;;;;;5015037;28;20045;-77
2023/05/03 00:38:37;;;;;;;2.88;0.30;;;11.60;69.30;;;;;;5014906;28;20034;-78
2023/05/03 00:41:03;;;;;;;2.22;0.30;;;11.70;69.50;;;;;;5014704;28;20044;-78
2023/05/03 00:43:29;;;;;;;3.50;0.40;;;11.90;70.00;;;;;;5014933;28;20026;-77
2023/05/03 00:45:55;;;;;;;4.30;0.50;;;11.90;68.90;;;;;;4981125;28;20030;-77
2023/05/03 00:48:21;;;;;;;2.40;0.50;;;11.90;68.70;;;;;;5014876;28;20113;-78
2023/05/03 00:50:48;;;;;;;1.73;0.40;;;11.70;68.90;;;;;;4998147;28;20083;-78
2023/05/03 00:53:14;;;;;;;4.35;0.57;;;11.60;69.50;;;;;;4997182;28;20386;-78
2023/05/03 00:55:41;;;;;;;3.30;0.40;;;11.50;69.60;;;;;;4997058;28;20030;-76
2023/05/03 00:58:06;;;;;;;3.67;0.63;;;11.50;70.50;;;;;;5014601;28;20035;-79
2023/05/03 01:00:32;;;;;;;6.70;0.85;;;11.70;71.30;;;;;;5014212;28;20053;-76
2023/05/03 01:02:58;;;;;;;1.83;0.47;;;11.80;70.70;;;;;;4997226;28;20033;-76
2023/05/03 01:05:27;;;;;;;2.10;0.43;;;11.80;70.50;;;;;;4980859;28;20117;-76
2023/05/03 01:08:13;;;;;;;5.22;0.45;;;12.00;71.60;;;;;;5013793;28;20030;-76
2023/05/03 01:10:50;;;;;;;5.03;0.70;;;12.00;70.20;;;;;;4997404;28;20029;-76
2023/05/03 01:13:43;;;;;;;2.92;0.90;;;12.10;69.70;;;;;;4997430;28;20040;-77
2023/05/03 01:16:19;;;;;;;6.88;0.70;;;12.10;69.90;;;;;;5014473;28;20026;-78
2023/05/03 01:18:50;;;;;;;2.65;0.60;;;12.10;69.50;;;;;;5014350;28;20026;-78
2023/05/03 01:21:18;;;;;;;3.10;0.60;;;12.10;69.90;;;;;;5014354;28;20474;-78
2023/05/03 01:24:02;;;;;;;4.68;0.60;;;12.10;69.10;;;;;;5014545;28;20068;-78
2023/05/03 01:26:28;;;;;;;3.42;0.30;;;11.80;69.30;;;;;;5014468;28;20037;-77
2023/05/03 01:28:54;;;;;;;2.40;0.50;;;11.80;70.20;;;;;;5014376;28;20058;-77
2023/05/03 01:31:43;;;;;;;3.15;0.50;;;12.00;70.90;;;;;;5014464;28;20034;-77
2023/05/03 01:34:41;;;;;;;3.95;0.65;;;12.10;71.00;;;;;;4996545;28;20033;-78
2023/05/03 01:37:09;;;;;;;3.22;0.40;;;12.10;70.30;;;;;;4996293;28;20030;-79
2023/05/03 01:39:42;;;;;;;3.90;0.43;;;12.20;72.00;;;;;;5014641;28;20069;-77
2023/05/03 01:42:08;;;;;;;2.95;0.73;;;12.50;71.00;;;;;;5014048;28;20481;-78
2023/05/03 01:44:35;;;;;;;2.10;0.40;;;12.60;71.50;;;;;;5014313;28;20030;-77
2023/05/03 01:47:01;;;;;;;3.53;0.60;;;12.70;71.40;;;;;;5014025;28;20061;-77
2023/05/03 01:49:27;;;;;;;2.67;0.60;;;12.70;68.70;;;;;;5013967;28;20084;-77
2023/05/03 01:51:52;;;;;;;6.95;0.77;;;12.50;68.80;;;;;;4996278;28;20030;-78
2023/05/03 01:54:18;;;;;;;4.13;0.30;;;12.40;69.70;;;;;;5013681;28;20041;-77
2023/05/03 01:56:45;;;;;;;4.15;0.60;;;12.40;69.90;;;;;;4980333;28;20566;-78
2023/05/03 01:59:11;;;;;;;4.57;0.73;;;12.30;69.60;;;;;;5013548;28;20422;-78
2023/05/03 02:01:36;;;;;;;3.42;0.50;;;12.30;68.90;;;;;;5013760;28;20038;-78
2023/05/03 02:04:02;;;;;;;1.70;0.30;;;12.30;70.10;;;;;;5014120;28;20030;-80
2023/05/03 02:06:28;;;;;;;6.18;0.60;;;12.30;70.70;;;;;;4996498;28;20037;-78
2023/05/03 02:08:53;;;;;;;3.83;0.98;;;12.50;70.80;;;;;;4996022;28;20096;-77
2023/05/03 02:11:20;;;;;;;3.15;0.75;;;12.40;68.20;;;;;;5013514;28;20108;-78
2023/05/03 02:13:48;;;;;;;3.65;0.47;;;12.10;68.10;;;;;;5013948;28;20084;-78
2023/05/03 02:16:14;;;;;;;3.22;0.50;;;11.70;69.70;;;;;;4996563;28;20029;-78
2023/05/03 02:18:40;;;;;;;2.80;0.30;;;11.70;71.50;;;;;;4998101;28;20538;-78
2023/05/03 02:21:08;;;;;;;7.45;0.43;;;11.90;71.20;;;;;;5017536;28;20041;-78
2023/05/03 02:23:33;;;;;;;1.63;0.50;;;12.00;71.50;;;;;;5017563;28;20026;-78
2023/05/03 02:25:59;;;;;;;3.00;0.32;;;11.90;69.60;;;;;;5000081;28;20427;-78
2023/05/03 02:28:25;;;;;;;2.13;0.52;;;11.90;70.90;;;;;;5017728;28;20061;-78
2023/05/03 02:30:50;;;;;;;1.73;0.25;;;12.00;72.10;;;;;;4983605;28;20033;-78
2023/05/03 02:33:16;;;;;;;0.93;0.20;;;12.20;72.50;;;;;;5017302;28;20505;-78
2023/05/03 02:35:42;;;;;;;4.30;0.40;;;12.40;72.70;;;;;;4983960;28;20030;-78
2023/05/03 02:38:07;;;;;;;12.45;1.40;;;12.50;71.20;;;;;;5017585;28;20069;-79
2023/05/03 02:40:33;;;;;;;3.40;0.43;;;12.40;67.50;;;;;;4967318;28;20505;-77
2023/05/03 02:42:59;;;;;;;4.13;0.35;;;12.10;69.10;;;;;;5017196;28;20069;-78
2023/05/03 02:45:25;;;;;;;2.22;0.40;;;12.10;69.50;;;;;;5016871;28;20479;-78
2023/05/03 02:47:51;;;;;;;3.08;0.60;;;12.10;69.50;;;;;;4999943;28;20038;-78
2023/05/03 02:50:16;;;;;;;3.30;0.30;;;12.20;69.70;;;;;;5017037;28;20037;-78
2023/05/03 02:52:42;;;;;;;3.17;0.22;;;12.20;69.20;;;;;;4983128;28;20030;-78
2023/05/03 02:55:08;;;;;;;1.95;0.30;;;12.30;69.50;;;;;;5016943;28;20030;-78
2023/05/03 02:57:34;;;;;;;3.72;0.57;;;12.40;69.60;;;;;;4999248;28;20030;-77
2023/05/03 03:00:00;;;;;;;2.53;0.30;;;12.50;69.20;;;;;;4999683;28;20061;-78
2023/05/03 03:02:25;;;;;;;4.45;0.40;;;12.60;68.70;;;;;;5016767;28;20045;-78
2023/05/03 03:04:51;;;;;;;3.25;0.35;;;12.50;67.10;;;;;;4999736;28;20383;-78
2023/05/03 03:07:17;;;;;;;1.50;0.20;;;12.50;67.90;;;;;;4999074;28;20033;-78
2023/05/03 03:09:42;;;;;;;2.22;0.30;;;12.60;68.00;;;;;;4982929;28;20129;-78
2023/05/03 03:12:08;;;;;;;2.65;0.30;;;12.60;67.80;;;;;;4999480;28;20026;-78
2023/05/03 03:14:34;;;;;;;2.05;0.30;;;12.60;68.10;;;;;;4982814;28;20060;-78
2023/05/03 03:17:02;;;;;;;3.08;0.50;;;12.60;67.30;;;;;;5016306;28;20033;-78
2023/05/03 03:19:27;;;;;;;3.08;0.25;;;12.50;67.90;;;;;;5016414;28;20034;-78
2023/05/03 03:21:53;;;;;;;2.17;0.30;;;12.60;68.90;;;;;;4982845;28;20034;-78
2023/05/03 03:24:19;;;;;;;8.10;0.47;;;12.60;67.80;;;;;;4983037;28;20081;-78
2023/05/03 03:26:44;;;;;;;6.82;1.15;;;12.50;67.30;;;;;;4999005;28;20026;-78
2023/05/03 03:29:10;;;;;;;3.92;0.40;;;12.50;67.10;;;;;;4998920;28;20378;-78
2023/05/03 03:31:36;;;;;;;2.47;0.40;;;12.40;66.70;;;;;;5015792;28;20061;-78
2023/05/03 03:34:01;;;;;;;3.80;0.52;;;12.30;67.60;;;;;;4982426;28;20030;-78
2023/05/03 03:36:27;;;;;;;1.75;0.30;;;12.30;68.30;;;;;;5015952;28;20030;-78
2023/05/03 03:38:53;;;;;;;3.70;0.47;;;12.40;68.60;;;;;;4998534;28;20046;-78
2023/05/03 03:41:19;;;;;;;1.92;0.10;;;12.40;69.10;;;;;;4998523;28;20493;-78
2023/05/03 03:43:45;;;;;;;1.83;0.30;;;12.40;69.70;;;;;;5016316;28;20057;-78
2023/05/03 03:46:10;;;;;;;2.85;0.30;;;12.50;69.20;;;;;;4998633;28;20489;-78
2023/05/03 03:48:36;;;;;;;3.95;0.40;;;12.60;68.80;;;;;;4998333;28;20038;-78
2023/05/03 03:51:02;;;;;;;2.80;0.30;;;12.60;69.10;;;;;;4982956;28;20030;-78
2023/05/03 03:53:27;;;;;;;3.33;0.30;;;12.60;68.90;;;;;;5015922;28;20030;-78
2023/05/03 03:55:53;;;;;;;1.90;0.22;;;12.70;69.20;;;;;;4998248;28;20041;-78
2023/05/03 03:58:19;;;;;;;1.65;0.30;;;12.80;68.70;;;;;;5015725;28;20029;-78
2023/05/03 04:00:45;;;;;;;2.75;0.35;;;12.80;68.80;;;;;;5015678;28;20065;-78
2023/05/03 04:03:10;;;;;;;2.03;0.30;;;12.80;68.20;;;;;;4965811;28;20034;-78
2023/05/03 04:05:36;;;;;;;7.00;0.57;;;12.80;68.50;;;;;;4982032;28;20037;-78
2023/05/03 04:08:02;;;;;;;7.60;0.50;;;12.70;67.60;;;;;;4997864;28;20483;-78
2023/05/03 04:10:27;;;;;;;2.65;0.20;;;12.60;67.10;;;;;;4997943;28;20034;-78
2023/05/03 04:12:54;;;;;;;2.95;0.25;;;12.50;67.70;;;;;;4981743;28;20034;-78
2023/05/03 04:15:20;;;;;;;2.92;0.70;;;12.50;68.50;;;;;;4998415;28;20037;-78
2023/05/03 04:17:46;;;;;;;0.95;0.20;;;12.60;68.50;;;;;;4965655;28;20395;-78
2023/05/03 04:20:12;;;;;;;2.13;0.17;;;12.60;69.10;;;;;;4997574;28;20030;-78
2023/05/03 04:22:39;;;;;;;2.50;0.38;;;12.60;69.10;;;;;;4997640;28;20037;-78
2023/05/03 04:25:07;;;;;;;1.92;0.30;;;12.70;69.60;;;;;;4997345;28;20117;-77
2023/05/03 04:27:33;;;;;;;4.60;0.30;;;12.80;69.20;;;;;;4997405;28;20042;-78
2023/05/03 04:29:59;;;;;;;2.78;0.30;;;12.80;69.10;;;;;;4997523;28;20385;-78
2023/05/03 04:32:25;;;;;;;3.13;0.30;;;12.80;69.30;;;;;;4998247;28;20378;-78
2023/05/03 04:34:51;;;;;;;2.13;0.20;;;12.90;69.10;;;;;;4997544;28;20033;-78
2023/05/03 04:37:18;;;;;;;2.28;0.35;;;12.90;68.80;;;;;;4997659;28;20117;-78
2023/05/03 04:39:44;;;;;;;2.30;0.35;;;12.90;68.70;;;;;;4997368;28;20486;-78
2023/05/03 04:42:13;;;;;;;3.05;0.40;;;12.80;68.90;;;;;;4996768;28;20030;-78
2023/05/03 04:44:38;;;;;;;4.25;0.47;;;12.80;68.70;;;;;;4997768;28;20450;-78
2023/05/03 04:47:04;;;;;;;3.22;0.73;;;12.80;68.50;;;;;;4997540;28;20130;-78
2023/05/03 04:49:31;;;;;;;3.35;0.60;;;12.50;67.50;;;;;;5014870;28;20038;-77
2023/05/03 04:51:57;;;;;;;3.10;0.50;;;12.30;67.70;;;;;;4981183;28;20120;-78
2023/05/03 04:54:23;;;;;;;4.07;0.40;;;12.10;69.10;;;;;;4997985;28;20523;-78
2023/05/03 04:56:48;;;;;;;3.67;0.38;;;12.00;69.10;;;;;;4997077;28;20532;-78
2023/05/03 04:59:14;;;;;;;3.00;0.30;;;12.00;69.90;;;;;;5014564;28;20084;-78
2023/05/03 05:01:40;;;;;;;2.25;0.32;;;12.10;69.90;;;;;;4980789;28;20049;-78
2023/05/03 05:04:06;;;;;;;3.45;0.45;;;12.20;70.50;;;;;;4980817;28;20030;-78
2023/05/03 05:06:31;;;;;;;5.60;0.50;;;12.30;69.90;;;;;;5014190;28;20030;-77
2023/05/03 05:08:57;;;;;;;4.22;1.10;;;12.40;70.30;;;;;;4996742;28;20041;-78
2023/05/03 05:11:23;;;;;;;5.18;0.65;;;12.40;69.20;;;;;;4980644;28;20034;-78
2023/05/03 05:13:48;;;;;;;2.97;0.70;;;12.20;69.30;;;;;;4996829;28;20426;-78
2023/05/03 05:16:16;;;;;;;4.85;0.98;;;12.00;69.60;;;;;;4996800;28;20030;-78
2023/05/03 05:18:42;;;;;;;3.60;0.40;;;12.00;70.30;;;;;;4980669;28;20148;-79
2023/05/03 05:21:07;;;;;;;2.90;0.50;;;11.90;70.10;;;;;;4997109;28;20501;-77
2023/05/03 05:23:33;;;;;;;5.30;0.70;;;11.90;70.80;;;;;;5014226;28;20038;-78
2023/05/03 05:25:59;;;;;;;4.63;0.40;;;11.70;70.40;;;;;;5014648;28;20462;-78
2023/05/03 05:28:26;;;;;;;4.35;0.55;;;11.60;70.90;;;;;;4996573;28;20248;-78
2023/05/03 05:30:52;;;;;;;4.82;0.43;;;11.70;71.30;;;;;;4996740;28;20394;-77
2023/05/03 05:33:18;;;;;;;3.53;0.47;;;11.80;71.60;;;;;;5013734;28;20063;-78
2023/05/03 05:35:45;;;;;;;4.60;0.60;;;11.90;71.80;;;;;;5014317;28;20018;-78
2023/05/03 05:38:11;;;;;;;3.97;0.80;;;12.00;71.60;;;;;;5014240;28;20581;-78
2023/05/03 05:40:37;;;;;;;4.50;0.52;;;12.10;71.40;;;;;;4980090;28;20050;-77
2023/05/03 05:43:03;;;;;;;4.07;0.40;;;12.10;71.10;;;;;;4996569;28;20030;-78
2023/05/03 05:45:30;;;;;;;7.40;0.80;;;12.10;71.20;;;;;;4996304;28;20117;-76
2023/05/03 05:47:55;;;;;;;5.20;0.60;;;12.10;70.70;;;;;;5013862;28;20466;-79
2023/05/03 05:50:21;;;;;;;4.53;0.68;;;12.00;71.30;;;;;;4980805;28;20045;-78
2023/05/03 05:52:51;;;;;;;2.67;0.40;;;11.90;71.30;;;;;;5013352;28;20398;-78
2023/05/03 05:55:17;;;;;;;6.05;0.70;;;11.80;71.60;;;;;;5002233;28;20026;-82
2023/05/03 05:57:43;;;;;;;4.43;0.50;;;11.80;71.80;;;;;;5012757;28;20030;-81
2023/05/03 06:00:13;;;;;;;6.88;0.70;;;11.90;71.50;;;;;;5011588;28;20037;-80
2023/05/03 06:02:43;;;;;;;3.38;0.50;;;11.80;71.40;;;;;;5015626;28;20053;-80
2023/05/03 06:05:10;;;;;;;3.50;0.52;;;11.80;71.40;;;;;;5029097;28;20030;-81
2023/05/03 06:07:36;;;;;;;6.10;1.00;;;11.70;71.70;;;;;;5008654;28;20010;-81
2023/05/03 06:10:02;;;;;;;3.55;0.65;;;11.70;71.80;;;;;;5005372;28;20053;-81
2023/05/03 06:12:28;;;;;;;2.42;0.50;;;11.60;71.50;;;;;;5021188;28;20065;-79
2023/05/03 06:14:54;;;;;;;8.48;0.90;;;11.50;71.20;;;;;;5030998;28;20471;-81
2023/05/03 06:17:22;;;;;;;5.88;0.60;;;11.50;72.10;;;;;;5011132;28;20049;-79
2023/05/03 06:19:48;;;;;;;5.38;0.80;;;11.40;71.80;;;;;;5028422;28;20026;-79
2023/05/03 06:22:14;;;;;;;4.00;0.35;;;11.40;71.70;;;;;;5027738;28;20034;-79
2023/05/03 06:24:40;;;;;;;4.18;0.40;;;11.50;71.60;;;;;;5015997;28;20499;-79
2023/05/03 06:27:06;;;;;;;5.75;0.65;;;11.60;71.00;;;;;;5020326;28;20062;-79
2023/05/03 06:29:31;;;;;;;3.47;0.70;;;11.70;70.40;;;;;;4986525;28;20450;-80
2023/05/03 06:31:57;;;;;;;3.60;0.50;;;11.70;70.50;;;;;;5031603;28;20021;-81
2023/05/03 06:34:24;;;;;;;6.43;0.65;;;11.60;70.00;;;;;;5011207;28;20030;-80
2023/05/03 06:36:49;;;;;;;4.88;0.35;;;11.60;70.00;;;;;;5006045;28;20041;-81
2023/05/03 06:39:16;;;;;;;4.22;0.40;;;11.70;70.00;;;;;;5009071;28;20054;-80
2023/05/03 06:41:41;;;;;;;3.22;0.40;;;11.90;69.70;;;;;;4998269;28;20104;-80
2023/05/03 06:44:07;;;;;;;2.60;0.30;;;11.90;69.70;;;;;;4999008;28;20034;-80
2023/05/03 06:46:33;;;;;;;5.68;0.45;;;12.00;69.10;;;;;;4983542;28;20064;-80
2023/05/03 06:48:59;;;;;;;4.28;0.43;;;11.90;68.30;;;;;;5020681;28;20431;-80
2023/05/03 06:51:31;;;;;;;6.13;0.50;;;12.00;68.10;;;;;;5020738;28;20367;-81
2023/05/03 06:54:05;;;;;;;6.65;0.80;;;11.90;68.20;;;;;;5009564;28;20044;-80
2023/05/03 06:56:31;;;;;;;5.93;0.55;;;11.80;67.50;;;;;;5021128;28;20478;-80
2023/05/03 06:58:57;;;;;;;6.60;0.88;;;11.80;68.90;;;;;;5005762;28;20041;-80
2023/05/03 07:01:23;;;;;;;5.45;0.77;;;11.70;69.20;;;;;;5021941;28;20030;-80
2023/05/03 07:03:48;;;;;;;2.85;0.28;;;11.80;70.10;;;;;;5030636;28;20425;-80
2023/05/03 07:06:15;;;;;;;4.60;0.38;;;11.90;70.10;;;;;;5008459;28;20045;-81
2023/05/03 07:08:41;;;;;;;3.22;0.65;;;12.00;68.30;;;;;;5019050;28;20018;-79
2023/05/03 07:11:07;;;;;;;3.45;0.45;;;12.00;68.40;;;;;;4999213;28;20129;-80
2023/05/03 07:13:32;;;;;;;6.28;0.63;;;12.10;67.90;;;;;;5029244;28;20030;-79
2023/05/03 07:15:59;;;;;;;6.60;0.50;;;12.10;67.90;;;;;;5027094;28;20022;-79
2023/05/03 07:18:25;;;;;;;7.97;0.52;;;12.10;67.80;;;;;;5011069;28;20386;-79
2023/05/03 07:20:51;;;;;;;4.15;0.68;;;12.20;68.70;;;;;;5001574;28;20033;-77
2023/05/03 07:23:17;;;;;;;4.90;0.50;;;12.10;69.60;;;;;;4998632;28;20049;-74
2023/05/03 07:25:44;;;;;;;3.67;0.40;;;12.20;68.70;;;;;;5016226;28;20033;-75
2023/05/03 07:28:09;;;;;;;5.53;0.38;;;12.30;68.20;;;;;;4995085;28;20517;-74
2023/05/03 07:30:35;;;;;;;5.70;0.68;;;12.50;68.00;;;;;;4994991;28;20038;-74
2023/05/03 07:33:00;;;;;;;6.32;0.80;;;12.60;68.40;;;;;;4995125;28;20089;-75
2023/05/03 07:35:27;;;;;;;5.65;0.73;;;12.60;68.30;;;;;;4994650;28;20042;-75
2023/05/03 07:37:53;;;;;;;4.57;0.85;;;12.60;66.50;;;;;;4996038;28;20505;-74
2023/05/03 07:40:18;;;;;;;8.00;0.95;;;12.50;66.40;;;;;;4994895;28;20038;-75
2023/05/03 07:42:45;;;;;;;5.45;0.88;;;12.40;67.70;;;;;;4995953;28;20434;-75
2023/05/03 07:45:11;;;;;;;5.75;0.77;;;12.40;67.50;;;;;;4994937;28;20031;-75
2023/05/03 07:47:38;;;;;;;4.03;0.90;;;12.60;68.70;;;;;;4995139;28;20030;-75
2023/05/03 07:50:06;;;;;;;3.60;0.93;;;12.60;68.00;;;;;;4963010;28;20038;-75
2023/05/03 07:52:39;;;;;;;8.75;0.95;;;12.70;68.30;;;;;;4995161;28;20053;-75
2023/05/03 07:55:05;;;;;;;6.05;0.88;;;12.80;66.80;;;;;;4995976;28;20083;-75
2023/05/03 07:57:32;;;;;;;12.57;1.83;;;12.90;67.20;;;;;;4994835;28;20042;-76
2023/05/03 07:59:57;;;;;;;6.30;0.93;;;12.90;67.60;;;;;;4994537;28;20030;-75
2023/05/03 08:02:23;;;;;;;6.88;0.88;;;12.90;67.00;;;;;;4995575;28;20041;-75
2023/05/03 08:04:49;;;;;;;3.47;1.00;;;13.00;67.50;;;;;;4996703;28;20026;-79
2023/05/03 08:07:16;;;;;;;6.88;0.40;;;13.00;67.60;;;;;;5013509;28;20026;-80
2023/05/03 08:09:42;;;;;;;6.50;0.65;;;13.00;66.70;;;;;;5007269;28;20097;-81
2023/05/03 08:12:08;;;;;;;6.03;1.00;;;13.10;67.20;;;;;;5006517;28;20053;-80
2023/05/03 08:14:35;;;;;;;3.47;0.60;;;13.20;67.50;;;;;;5012741;28;20034;-80
2023/05/03 08:17:03;;;;;;;5.47;1.02;;;13.10;68.00;;;;;;4991068;28;20026;-80
2023/05/03 08:19:29;;;;;;;5.72;0.50;;;13.20;67.20;;;;;;5001761;28;20035;-80
2023/05/03 08:21:55;;;;;;;4.90;0.73;;;13.40;65.70;;;;;;4998141;28;20057;-80
2023/05/03 08:24:21;;;;;;;5.15;0.65;;;13.60;65.90;;;;;;5000676;28;20050;-81
2023/05/03 08:26:47;;;;;;;5.57;0.90;;;13.70;66.70;;;;;;5002745;28;20034;-81
2023/05/03 08:29:13;;;;;;;3.33;0.50;;;13.70;66.50;;;;;;4983039;28;20076;-82
2023/05/03 08:31:39;;;;;;;4.90;0.60;;;13.80;64.60;;;;;;5016763;28;20113;-81
2023/05/03 08:34:06;;;;;;;3.90;0.68;;;13.80;64.40;;;;;;5019237;28;20058;-80
2023/05/03 08:36:33;;;;;;;5.40;0.80;;;13.70;64.50;;;;;;5027687;28;20029;-79
2023/05/03 08:39:00;;;;;;;3.65;0.60;;;13.90;65.80;;;;;;5025552;28;20050;-81
2023/05/03 08:41:30;;;;;;;4.18;0.50;;;13.90;66.00;;;;;;4999486;28;20125;-80
2023/05/03 08:43:57;;;;;;;2.13;0.47;;;14.00;65.40;;;;;;5017528;28;20033;-81
2023/05/03 08:46:24;;;;;;;5.40;0.70;;;14.00;65.10;;;;;;5014470;28;20462;-81
2023/05/03 08:48:51;;;;;;;3.40;0.90;;;14.10;66.70;;;;;;5020047;28;20037;-78
2023/05/03 08:51:19;;;;;;;5.20;0.70;;;14.10;65.50;;;;;;5002297;28;20066;-80
2023/05/03 08:53:45;;;;;;;5.38;0.50;;;14.10;65.20;;;;;;5000733;28;20368;-81
2023/05/03 08:56:33;;;;;;;4.25;0.40;;;14.10;65.60;;;;;;5021317;28;20030;-81
2023/05/03 08:59:06;;;;;;;4.55;0.73;;;14.10;64.20;;;;;;5017570;28;20030;-82
2023/05/03 09:01:32;;;;;;;;;;;14.10;63.70;;;;;;5000463;28;20030;-82
2023/05/03 09:03:58;;;;;;;3.67;0.70;;;14.20;64.00;;;;;;5015491;28;19999;-79
2023/05/03 09:06:27;;;;;;;4.85;0.50;;;14.20;63.00;;;;;;5014889;28;20061;-81
2023/05/03 09:08:54;;;;;;;3.10;0.68;;;14.10;64.50;;;;;;4997629;28;20414;-80
2023/05/03 09:11:21;;;;;;;3.10;0.50;;;14.10;64.40;;;;;;4999672;28;20118;-80
2023/05/03 09:13:47;;;;;;;3.45;0.60;;;14.20;65.00;;;;;;5025624;28;20037;-79
2023/05/03 09:16:28;;;;;;;5.60;1.10;;;14.30;65.60;;;;;;5005869;28;20034;-80
2023/05/03 09:18:58;;;;;;;9.57;1.25;;;14.60;63.30;;;;;;5026966;28;20033;-80
2023/05/03 09:21:23;;;;;;;4.72;0.80;;;14.70;63.20;;;;;;5018884;28;20061;-80
2023/05/03 09:23:49;;;;;;;4.07;0.55;;;14.90;64.00;;;;;;4985684;28;20025;-81
2023/05/03 09:26:32;;;;;;;8.40;0.82;;;15.00;63.90;;;;;;4973455;28;20056;-79
2023/05/03 09:29:00;;;;;;;6.32;0.80;;;15.20;63.40;;;;;;5005468;28;20395;-80
2023/05/03 09:31:27;;;;;;;5.05;0.70;;;15.30;62.50;;;;;;5004036;28;20030;-79
2023/05/03 09:33:53;;;;;;;7.78;1.10;;;15.30;61.90;;;;;;4984539;28;20034;-80
2023/05/03 09:36:18;;;;;;;4.57;0.85;;;15.40;62.20;;;;;;5016253;28;20037;-79
2023/05/03 09:38:44;;;;;;;3.50;0.73;;;15.30;61.70;;;;;;4989070;28;20054;-80
2023/05/03 09:41:10;;;;;;;6.82;0.93;;;15.20;62.70;;;;;;5019178;28;20084;-80
2023/05/03 09:43:51;;;;;;;7.40;1.60;;;15.20;63.20;;;;;;5018509;28;20030;-80
2023/05/03 09:46:17;;;;;;;4.97;0.65;;;15.20;63.10;;;;;;5017895;28;20030;-80
2023/05/03 09:48:44;;;;;;;8.40;0.93;;;15.40;60.90;;;;;;5017206;28;20088;-82
2023/05/03 09:51:12;;;;;;;3.33;0.77;;;15.50;60.90;;;;;;5009442;28;20105;-81
2023/05/03 09:53:40;;;;;;;4.20;0.98;;;15.60;60.20;;;;;;5029720;28;20046;-82
2023/05/03 09:56:11;;;;;;;6.60;0.90;;;15.70;62.20;;;;;;5031794;28;20030;-81
2023/05/03 09:58:38;;;;;;;7.32;1.20;;;15.70;61.70;;;;;;5007952;28;20466;-80
2023/05/03 10:01:04;;;;;;;5.65;0.98;;;15.80;62.30;;;;;;5023664;28;20041;-80
2023/05/03 10:03:39;;;;;;;4.82;0.50;;;15.90;61.30;;;;;;5014656;28;20037;-79
2023/05/03 10:06:13;;;;;;;2.58;0.57;;;15.90;60.60;;;;;;5014804;28;20033;-80
2023/05/03 10:08:59;;;;;;;3.25;0.80;;;16.00;60.10;;;;;;5017778;28;20072;-83
2023/05/03 10:11:26;;;;;;;9.23;1.08;;;16.00;60.50;;;;;;5029568;28;20046;-82
2023/05/03 10:13:53;;;;;;;4.90;0.50;;;16.20;59.80;;;;;;4992349;28;20018;-82
2023/05/03 10:16:35;;;;;;;3.70;0.65;;;16.40;60.00;;;;;;5019824;28;20032;-81
2023/05/03 10:19:22;;;;;;;3.22;0.90;;;16.60;60.60;;;;;;5021383;28;20030;-79
2023/05/03 10:22:09;;;;;;;4.53;0.88;;;16.60;59.20;;;;;;5017634;28;20033;-79
2023/05/03 10:24:37;;;;;;;8.13;0.80;;;16.50;59.30;;;;;;5017047;28;20034;-78
2023/05/03 10:27:06;;;;;;;5.53;0.85;;;16.50;58.70;;;;;;4996154;28;20033;-79
2023/05/03 10:29:44;;;;;;;5.78;1.13;;;16.50;57.70;;;;;;4981009;28;20034;-78
2023/05/03 10:32:30;;;;;;;3.75;0.55;;;16.40;58.60;;;;;;5013489;28;20477;-78
2023/05/03 10:35:12;;;;;;;5.65;0.90;;;16.50;59.30;;;;;;5013650;28;20030;-80
2023/05/03 10:37:40;;;;;;;4.25;0.73;;;16.60;58.80;;;;;;5013034;28;20109;-79
2023/05/03 10:40:12;;;;;;;3.00;0.70;;;16.70;58.20;;;;;;5016842;28;20498;-78
2023/05/03 10:42:41;;;;;;;3.38;0.52;;;16.80;58.20;;;;;;5017532;28;20093;-78
2023/05/03 10:45:07;;;;;;;4.97;0.60;;;16.90;58.20;;;;;;4999051;28;20034;-79
2023/05/03 10:47:33;;;;;;;3.65;0.70;;;16.90;59.30;;;;;;5018142;28;20458;-80
2023/05/03 10:50:14;;;;;;;2.53;0.50;;;17.00;57.70;;;;;;5018555;28;20037;-79
2023/05/03 10:52:40;;;;;;;4.28;0.80;;;17.10;57.80;;;;;;5001167;28;20033;-79
2023/05/03 10:55:15;;;;;;;6.25;0.68;;;17.30;58.20;;;;;;5017525;28;20030;-79
2023/05/03 10:57:42;;;;;;;5.22;0.80;;;17.40;59.40;;;;;;5001478;28;20041;-80
2023/05/03 11:00:18;;;;;;;2.97;0.50;;;17.40;58.30;;;;;;5018075;28;20046;-79
2023/05/03 11:03:05;;;;;;;3.30;0.70;;;17.50;58.40;;;;;;4999036;28;20034;-78
2023/05/03 11:05:36;;;;;;;4.50;0.52;;;17.40;58.30;;;;;;4999881;28;20030;-79
2023/05/03 11:08:13;;;;;;;2.77;0.43;;;17.40;57.30;;;;;;4999344;28;20064;-78
2023/05/03 11:10:40;;;;;;;7.03;1.33;;;17.50;56.80;;;;;;4999132;28;20268;-80
2023/05/03 11:13:06;;;;;;;5.32;0.95;;;17.40;56.40;;;;;;5016864;28;20036;-78
2023/05/03 11:15:32;;;;;;;3.58;0.90;;;17.40;57.00;;;;;;4998628;28;20034;-79
2023/05/03 11:17:58;;;;;;;4.65;0.77;;;17.50;56.60;;;;;;4999356;28;20360;-79
2023/05/03 11:20:25;;;;;;;4.63;0.60;;;17.60;55.70;;;;;;5016398;28;20026;-79
2023/05/03 11:22:51;;;;;;;7.85;0.95;;;17.70;56.50;;;;;;4998775;28;20045;-78
2023/05/03 11:25:18;;;;;;;3.08;0.93;;;17.90;56.00;;;;;;4999020;28;20038;-78
2023/05/03 11:27:45;;;;;;;5.65;0.82;;;17.90;56.30;;;;;;5016416;28;20054;-77
2023/05/03 11:30:12;;;;;;;4.43;1.17;;;17.90;56.10;;;;;;5016297;28;20026;-78
2023/05/03 11:32:38;;;;;;;8.07;0.95;;;17.90;57.40;;;;;;4982267;28;20387;-78
2023/05/03 11:35:06;;;;;;;5.15;1.13;;;17.80;55.30;;;;;;4982685;28;20057;-78
2023/05/03 11:37:33;;;;;;;7.93;0.70;;;17.80;55.50;;;;;;5016187;28;20026;-78
2023/05/03 11:39:59;;;;;;;4.35;0.70;;;17.80;55.00;;;;;;5015779;28;20459;-78
2023/05/03 11:42:26;;;;;;;1.60;0.50;;;17.90;55.00;;;;;;5016127;28;20033;-78
2023/05/03 11:44:53;;;;;;;3.72;1.02;;;17.90;54.60;;;;;;4998962;28;20030;-80
2023/05/03 11:47:18;;;;;;;4.72;1.02;;;17.90;55.40;;;;;;5019147;28;20030;-80
2023/05/03 11:49:55;;;;;;;5.45;1.00;;;18.00;55.00;;;;;;5015790;28;20079;-80
2023/05/03 11:52:26;;;;;;;5.68;0.95;;;18.20;55.50;;;;;;5015282;28;20038;-79
2023/05/03 11:54:52;;;;;;;5.88;0.65;;;18.30;56.00;;;;;;4966421;28;20026;-79
2023/05/03 11:57:18;;;;;;;3.72;0.90;;;18.40;54.00;;;;;;5015878;28;20463;-78
2023/05/03 11:59:44;;;;;;;4.63;0.65;;;18.40;54.30;;;;;;4982000;28;20037;-79
2023/05/03 12:02:14;;;;;;;3.75;0.70;;;18.40;53.30;;;;;;4998362;28;20451;-78
2023/05/03 12:04:42;;;;;;;3.13;0.90;;;18.50;54.50;;;;;;5015541;28;20053;-81
2023/05/03 12:07:09;;;;;;;2.13;0.80;;;18.50;54.00;;;;;;5015299;28;20040;-79
2023/05/03 12:09:36;;;;;;;4.13;0.60;;;18.50;54.30;;;;;;4998045;28;20040;-78
2023/05/03 12:12:02;;;;;;;3.47;1.05;;;18.50;52.20;;;;;;5015048;28;20037;-78
2023/05/03 12:14:28;;;;;;;2.38;0.60;;;18.50;54.20;;;;;;4998381;28;20141;-78
2023/05/03 12:16:55;;;;;;;3.78;0.93;;;18.70;54.80;;;;;;4997704;28;20053;-78
2023/05/03 12:19:28;;;;;;;2.08;0.60;;;18.90;53.60;;;;;;4981768;28;20466;-78
2023/05/03 12:21:54;;;;;;;4.68;0.90;;;18.80;53.00;;;;;;5015100;28;20038;-79
2023/05/03 12:24:21;;;;;;;3.08;0.73;;;18.80;53.00;;;;;;4997725;28;20030;-78
2023/05/03 12:26:48;;;;;;;3.15;0.80;;;18.70;52.10;;;;;;4997787;28;20025;-79
2023/05/03 12:29:18;;;;;;;4.15;0.93;;;18.90;52.60;;;;;;5015345;28;20061;-77
2023/05/03 12:31:44;;;;;;;3.70;0.70;;;18.90;53.40;;;;;;4998311;28;20065;-77
2023/05/03 12:34:10;;;;;;;3.50;0.80;;;18.90;52.20;;;;;;5014662;28;20459;-79
2023/05/03 12:36:36;;;;;;;3.47;0.75;;;18.90;51.90;;;;;;5015576;28;20030;-81
2023/05/03 12:39:03;;;;;;;4.32;0.80;;;19.10;53.30;;;;;;5020586;28;20030;-81
2023/05/03 12:41:30;;;;;;;4.55;1.00;;;19.10;52.60;;;;;;5016809;28;20102;-78
2023/05/03 12:44:01;;;;;;;3.72;0.80;;;19.20;53.20;;;;;;4997532;28;20034;-78
2023/05/03 12:46:26;;;;;;;3.33;0.80;;;19.30;53.50;;;;;;4981708;28;20030;-78
2023/05/03 12:48:52;;;;;;;3.88;0.75;;;19.40;52.80;;;;;;4997553;28;20411;-79
2023/05/03 12:51:18;;;;;;;4.85;0.90;;;19.30;52.30;;;;;;4996816;28;20486;-78